createdAt,value
2024-01-09T00:00:00.000Z,96818
2024-01-09T00:05:00.000Z,96824
2024-01-09T00:10:00.000Z,96826
2024-01-09T00:15:00.000Z,96828
2024-01-09T00:20:00.000Z,96822
2024-01-09T00:25:00.000Z,96834
2024-01-09T00:30:00.000Z,96822
2024-01-09T00:35:00.000Z,96828
2024-01-09T00:40:00.000Z,96826
2024-01-09T00:45:00.000Z,96830
2024-01-09T00:50:00.000Z,96830
2024-01-09T00:55:00.000Z,96831
2024-01-09T01:00:00.000Z,96833
2024-01-09T01:05:00.000Z,96837
2024-01-09T01:10:00.000Z,96846
2024-01-09T01:15:00.000Z,96844
2024-01-09T01:20:00.000Z,96844
2024-01-09T01:25:00.000Z,96839
2024-01-09T01:30:00.000Z,96849
2024-01-09T01:35:00.000Z,96851
2024-01-09T01:40:00.000Z,96854
2024-01-09T01:45:00.000Z,96851
2024-01-09T01:50:00.000Z,96839
2024-01-09T01:55:00.000Z,96840
2024-01-09T02:00:00.000Z,96849
2024-01-09T02:05:00.000Z,96847
2024-01-09T02:10:00.000Z,96842
2024-01-09T02:15:00.000Z,96850
2024-01-09T02:20:00.000Z,96847
2024-01-09T02:25:00.000Z,96838
2024-01-09T02:30:00.000Z,96833
2024-01-09T02:35:00.000Z,96833
2024-01-09T02:40:00.000Z,96827
2024-01-09T02:45:00.000Z,96828
2024-01-09T02:50:00.000Z,96838
2024-01-09T02:55:00.000Z,96844
2024-01-09T03:00:00.000Z,96843
2024-01-09T03:05:00.000Z,96837
2024-01-09T03:10:00.000Z,96836
2024-01-09T03:15:00.000Z,96838
2024-01-09T03:20:00.000Z,96833
2024-01-09T03:25:00.000Z,96824
2024-01-09T03:30:00.000Z,96834
2024-01-09T03:35:00.000Z,96840
2024-01-09T03:40:00.000Z,96835
2024-01-09T03:45:00.000Z,96843
2024-01-09T03:50:00.000Z,96832
2024-01-09T03:55:00.000Z,96837
2024-01-09T04:00:00.000Z,96828
2024-01-09T04:05:00.000Z,96830
2024-01-09T04:10:00.000Z,96827
2024-01-09T04:15:00.000Z,96825
2024-01-09T04:20:00.000Z,96826
2024-01-09T04:25:00.000Z,96819
2024-01-09T04:30:00.000Z,96825
2024-01-09T04:35:00.000Z,96814
2024-01-09T04:40:00.000Z,96821
2024-01-09T04:45:00.000Z,96818
2024-01-09T04:50:00.000Z,96823
2024-01-09T04:55:00.000Z,96826
2024-01-09T05:00:00.000Z,96818
2024-01-09T05:05:00.000Z,96823
2024-01-09T05:10:00.000Z,96816
2024-01-09T05:15:00.000Z,96819
2024-01-09T05:20:00.000Z,96817
2024-01-09T05:25:00.000Z,96826
2024-01-09T05:30:00.000Z,96818
2024-01-09T05:35:00.000Z,96829
2024-01-09T05:40:00.000Z,96825
2024-01-09T05:45:00.000Z,96819
2024-01-09T05:50:00.000Z,96832
2024-01-09T05:55:00.000Z,96827
2024-01-09T06:00:00.000Z,96834
2024-01-09T06:05:00.000Z,96826
2024-01-09T06:10:00.000Z,96831
2024-01-09T06:15:00.000Z,96837
2024-01-09T06:20:00.000Z,96849
2024-01-09T06:25:00.000Z,96841
2024-01-09T06:30:00.000Z,96846
2024-01-09T06:35:00.000Z,96852
2024-01-09T06:40:00.000Z,96852
2024-01-09T06:45:00.000Z,96850
2024-01-09T06:50:00.000Z,96854
2024-01-09T06:55:00.000Z,96861
2024-01-09T07:00:00.000Z,96864
2024-01-09T07:05:00.000Z,96860
2024-01-09T07:10:00.000Z,96864
2024-01-09T07:15:00.000Z,96861
2024-01-09T07:20:00.000Z,96869
2024-01-09T07:25:00.000Z,96875
2024-01-09T07:30:00.000Z,96879
2024-01-09T07:35:00.000Z,96884
2024-01-09T07:40:00.000Z,96884
2024-01-09T07:45:00.000Z,96878
2024-01-09T07:50:00.000Z,96887
2024-01-09T07:55:00.000Z,96891
2024-01-09T08:00:00.000Z,96892
2024-01-09T08:05:00.000Z,96899
2024-01-09T08:10:00.000Z,96900
2024-01-09T08:15:00.000Z,96890
2024-01-09T08:20:00.000Z,96896
2024-01-09T08:25:00.000Z,96904
2024-01-09T08:30:00.000Z,96912
2024-01-09T08:35:00.000Z,96906
2024-01-09T08:40:00.000Z,96913
2024-01-09T08:45:00.000Z,96906
2024-01-09T08:50:00.000Z,96907
2024-01-09T08:55:00.000Z,96912
2024-01-09T09:00:00.000Z,96909
2024-01-09T09:05:00.000Z,96912
2024-01-09T09:10:00.000Z,96918
2024-01-09T09:15:00.000Z,96927
2024-01-09T09:20:00.000Z,96915
2024-01-09T09:25:00.000Z,96929
2024-01-09T09:30:00.000Z,96932
2024-01-09T09:35:00.000Z,96933
2024-01-09T09:40:00.000Z,96932
2024-01-09T09:45:00.000Z,96938
2024-01-09T09:50:00.000Z,96928
2024-01-09T09:55:00.000Z,96927
2024-01-09T10:00:00.000Z,96928
2024-01-09T10:05:00.000Z,96931
2024-01-09T10:10:00.000Z,96931
2024-01-09T10:15:00.000Z,96930
2024-01-09T10:20:00.000Z,96934
2024-01-09T10:25:00.000Z,96920
2024-01-09T10:30:00.000Z,96924
2024-01-09T10:35:00.000Z,96929
2024-01-09T10:40:00.000Z,96922
2024-01-09T10:45:00.000Z,96927
2024-01-09T10:50:00.000Z,96928
2024-01-09T10:55:00.000Z,96934
2024-01-09T11:00:00.000Z,96932
2024-01-09T11:05:00.000Z,96927
2024-01-09T11:10:00.000Z,96933
2024-01-09T11:15:00.000Z,96935
2024-01-09T11:20:00.000Z,96940
2024-01-09T11:25:00.000Z,96933
2024-01-09T11:30:00.000Z,96932
2024-01-09T11:35:00.000Z,96932
2024-01-09T11:40:00.000Z,96936
2024-01-09T11:45:00.000Z,96932
2024-01-09T11:50:00.000Z,96944
2024-01-09T11:55:00.000Z,96942
2024-01-09T12:00:00.000Z,96944
2024-01-09T12:05:00.000Z,96945
2024-01-09T12:10:00.000Z,96930
2024-01-09T12:15:00.000Z,96937
2024-01-09T12:20:00.000Z,96945
2024-01-09T12:25:00.000Z,96942
2024-01-09T12:30:00.000Z,96934
2024-01-09T12:35:00.000Z,96934
2024-01-09T12:40:00.000Z,96945
2024-01-09T12:45:00.000Z,96944
2024-01-09T12:50:00.000Z,96944
2024-01-09T12:55:00.000Z,96947
2024-01-09T13:00:00.000Z,96943
2024-01-09T13:05:00.000Z,96950
2024-01-09T13:10:00.000Z,96941
2024-01-09T13:15:00.000Z,96958
2024-01-09T13:20:00.000Z,96954
2024-01-09T13:25:00.000Z,96957
2024-01-09T13:35:00.000Z,96959
2024-01-09T13:40:00.000Z,96956
2024-01-09T13:45:00.000Z,96970
2024-01-09T13:55:00.000Z,96964
2024-01-09T14:00:00.000Z,96974
2024-01-09T14:05:00.000Z,96966
2024-01-09T14:10:00.000Z,96970
2024-01-09T14:15:00.000Z,96970
2024-01-09T14:20:00.000Z,96974
2024-01-09T14:25:00.000Z,96978
2024-01-09T14:30:00.000Z,96981
2024-01-09T14:35:00.000Z,96986
2024-01-09T14:40:00.000Z,96986
2024-01-09T14:45:00.000Z,96979
2024-01-09T14:50:00.000Z,96979
2024-01-09T14:55:00.000Z,96978
2024-01-09T15:00:00.000Z,96974
2024-01-09T15:05:00.000Z,96978
2024-01-09T15:10:00.000Z,96970
2024-01-09T15:15:00.000Z,96976
2024-01-09T15:20:00.000Z,96973
2024-01-09T15:25:00.000Z,96976
2024-01-09T15:30:00.000Z,96987
2024-01-09T15:35:00.000Z,96993
2024-01-09T15:40:00.000Z,96990
2024-01-09T15:45:00.000Z,96994
2024-01-09T15:50:00.000Z,97000
2024-01-09T15:55:00.000Z,96992
2024-01-09T16:00:00.000Z,97002
2024-01-09T16:05:00.000Z,96998
2024-01-09T16:10:00.000Z,97008
2024-01-09T16:15:00.000Z,97011
2024-01-09T16:20:00.000Z,97021
2024-01-09T16:25:00.000Z,97018
2024-01-09T16:30:00.000Z,97035
2024-01-09T16:35:00.000Z,97032
2024-01-09T16:40:00.000Z,97034
2024-01-09T16:45:00.000Z,97040
2024-01-09T16:50:00.000Z,97036
2024-01-09T16:55:00.000Z,97049
2024-01-09T17:00:00.000Z,97046
2024-01-09T17:05:00.000Z,97043
2024-01-09T17:10:00.000Z,97049
2024-01-09T17:15:00.000Z,97038
2024-01-09T17:20:00.000Z,97054
2024-01-09T17:25:00.000Z,97048
2024-01-09T17:30:00.000Z,97058
2024-01-09T17:35:00.000Z,97060
2024-01-09T17:40:00.000Z,97056
2024-01-09T17:45:00.000Z,97064
2024-01-09T17:50:00.000Z,97053
2024-01-09T17:55:00.000Z,97064
2024-01-09T18:00:00.000Z,97067
2024-01-09T18:05:00.000Z,97072
2024-01-09T18:10:00.000Z,97061
2024-01-09T18:15:00.000Z,97062
2024-01-09T18:20:00.000Z,97073
2024-01-09T18:25:00.000Z,97066
2024-01-09T18:30:00.000Z,97069
2024-01-09T18:35:00.000Z,97068
2024-01-09T18:40:00.000Z,97067
2024-01-09T18:45:00.000Z,97076
2024-01-09T18:50:00.000Z,97074
2024-01-09T18:55:00.000Z,97073
2024-01-09T19:00:00.000Z,97070
2024-01-09T19:05:00.000Z,97078
2024-01-09T19:10:00.000Z,97070
2024-01-09T19:15:00.000Z,97073
2024-01-09T19:20:00.000Z,97073
2024-01-09T19:25:00.000Z,97070
2024-01-09T19:30:00.000Z,97087
2024-01-09T19:35:00.000Z,97098
2024-01-09T19:40:00.000Z,97098
2024-01-09T19:45:00.000Z,97095
2024-01-09T19:50:00.000Z,97101
2024-01-09T19:55:00.000Z,97102
2024-01-09T20:00:00.000Z,97100
2024-01-09T20:05:00.000Z,97109
2024-01-09T20:10:00.000Z,97100
2024-01-09T20:15:00.000Z,97110
2024-01-09T20:20:00.000Z,97110
2024-01-09T20:25:00.000Z,97108
2024-01-09T20:30:00.000Z,97106
2024-01-09T20:35:00.000Z,97090
2024-01-09T20:40:00.000Z,97090
2024-01-09T20:45:00.000Z,97094
2024-01-09T20:50:00.000Z,97091
2024-01-09T20:55:00.000Z,97080
2024-01-09T21:00:00.000Z,97084
2024-01-09T21:05:00.000Z,97086
2024-01-09T21:10:00.000Z,97081
2024-01-09T21:15:00.000Z,97084
2024-01-09T21:20:00.000Z,97088
2024-01-09T21:25:00.000Z,97087
2024-01-09T21:30:00.000Z,97088
2024-01-09T21:35:00.000Z,97089
2024-01-09T21:40:00.000Z,97085
2024-01-09T21:45:00.000Z,97078
2024-01-09T21:50:00.000Z,97085
2024-01-09T21:55:00.000Z,97084
2024-01-09T22:00:00.000Z,97087
2024-01-09T22:05:00.000Z,97082
2024-01-09T22:10:00.000Z,97105
2024-01-09T22:15:00.000Z,97093
2024-01-09T22:20:00.000Z,97089
2024-01-09T22:25:00.000Z,97091
2024-01-09T22:30:00.000Z,97107
2024-01-09T22:35:00.000Z,97100
2024-01-09T22:40:00.000Z,97097
2024-01-09T22:45:00.000Z,97091
2024-01-09T22:50:00.000Z,97091
2024-01-09T22:55:00.000Z,97089
2024-01-09T23:00:00.000Z,97086
2024-01-09T23:05:00.000Z,97072
2024-01-09T23:10:00.000Z,97070
2024-01-09T23:15:00.000Z,97067
2024-01-09T23:20:00.000Z,97070
2024-01-09T23:25:00.000Z,97064
2024-01-09T23:30:00.000Z,97070
2024-01-09T23:35:00.000Z,97055
2024-01-09T23:40:00.000Z,97056
2024-01-09T23:45:00.000Z,97045
2024-01-09T23:50:00.000Z,97041
2024-01-09T23:55:00.000Z,97044
